sensor_id;sensor_type;location;lat;lon;timestamp;P1;durP1;ratioP1;P2;durP2;ratioP2
50128;SDS011;36026;45.478;9.224;2023-05-07T00:05:06;31.15;;;23.02;;
50128;SDS011;36026;45.478;9.224;2023-05-07T00:08:31;35.63;;;23.98;;
50128;SDS011;36026;45.478;9.224;2023-05-07T00:11:33;28.23;;;21.98;;
50128;SDS011;36026;45.478;9.224;2023-05-07T00:46:06;26.30;;;20.00;;
50128;SDS011;36026;45.478;9.224;2023-05-07T00:49:12;25.55;;;16.73;;
50128;SDS011;36026;45.478;9.224;2023-05-07T00:52:15;15.32;;;10.20;;
50128;SDS011;36026;45.478;9.224;2023-05-07T00:56:12;11.18;;;8.07;;
50128;SDS011;36026;45.478;9.224;2023-05-07T00:59:12;10.45;;;8.40;;
50128;SDS011;36026;45.478;9.224;2023-05-07T01:06:18;9.63;;;5.88;;
50128;SDS011;36026;45.478;9.224;2023-05-07T01:09:21;8.65;;;5.97;;
50128;SDS011;36026;45.478;9.224;2023-05-07T01:12:30;8.32;;;6.07;;
50128;SDS011;36026;45.478;9.224;2023-05-07T01:15:46;10.38;;;7.20;;
50128;SDS011;36026;45.478;9.224;2023-05-07T01:19:20;9.00;;;7.70;;
50128;SDS011;36026;45.478;9.224;2023-05-07T01:30:11;11.13;;;7.07;;
50128;SDS011;36026;45.478;9.224;2023-05-07T01:33:33;7.07;;;5.35;;
50128;SDS011;36026;45.478;9.224;2023-05-07T01:37:05;6.63;;;5.20;;
50128;SDS011;36026;45.478;9.224;2023-05-07T01:40:24;8.90;;;5.28;;
50128;SDS011;36026;45.478;9.224;2023-05-07T01:43:31;8.68;;;5.57;;
50128;SDS011;36026;45.478;9.224;2023-05-07T01:46:51;6.05;;;4.65;;
50128;SDS011;36026;45.478;9.224;2023-05-07T01:49:55;5.28;;;4.03;;
50128;SDS011;36026;45.478;9.224;2023-05-07T01:56:31;7.22;;;4.50;;
50128;SDS011;36026;45.478;9.224;2023-05-07T01:59:59;4.35;;;3.60;;
50128;SDS011;36026;45.478;9.224;2023-05-07T02:03:25;5.75;;;3.50;;
50128;SDS011;36026;45.478;9.224;2023-05-07T02:06:35;4.07;;;3.10;;
50128;SDS011;36026;45.478;9.224;2023-05-07T02:09:38;5.28;;;3.20;;
50128;SDS011;36026;45.478;9.224;2023-05-07T02:12:39;4.10;;;2.58;;
50128;SDS011;36026;45.478;9.224;2023-05-07T02:15:45;2.40;;;1.83;;
50128;SDS011;36026;45.478;9.224;2023-05-07T02:18:50;3.50;;;2.13;;
50128;SDS011;36026;45.478;9.224;2023-05-07T02:22:26;5.88;;;1.67;;
50128;SDS011;36026;45.478;9.224;2023-05-07T02:25:34;3.92;;;1.25;;
50128;SDS011;36026;45.478;9.224;2023-05-07T02:28:39;3.92;;;1.52;;
50128;SDS011;36026;45.478;9.224;2023-05-07T02:31:42;3.35;;;1.35;;
50128;SDS011;36026;45.478;9.224;2023-05-07T02:38:22;2.08;;;1.30;;
50128;SDS011;36026;45.478;9.224;2023-05-07T02:45:16;3.42;;;1.33;;
50128;SDS011;36026;45.478;9.224;2023-05-07T02:48:39;2.83;;;1.30;;
50128;SDS011;36026;45.478;9.224;2023-05-07T02:51:41;1.75;;;1.17;;
50128;SDS011;36026;45.478;9.224;2023-05-07T02:54:43;22.35;;;2.00;;
50128;SDS011;36026;45.478;9.224;2023-05-07T02:57:47;6.22;;;1.48;;
50128;SDS011;36026;45.478;9.224;2023-05-07T03:00:49;1.77;;;1.20;;
50128;SDS011;36026;45.478;9.224;2023-05-07T03:03:56;1.30;;;1.00;;
50128;SDS011;36026;45.478;9.224;2023-05-07T03:07:04;2.95;;;1.20;;
50128;SDS011;36026;45.478;9.224;2023-05-07T03:10:06;1.98;;;1.10;;
50128;SDS011;36026;45.478;9.224;2023-05-07T03:13:08;3.15;;;1.33;;
50128;SDS011;36026;45.478;9.224;2023-05-07T03:16:10;2.25;;;1.40;;
50128;SDS011;36026;45.478;9.224;2023-05-07T03:19:14;2.63;;;1.20;;
50128;SDS011;36026;45.478;9.224;2023-05-07T03:22:31;2.25;;;1.27;;
50128;SDS011;36026;45.478;9.224;2023-05-07T03:25:33;8.43;;;1.73;;
50128;SDS011;36026;45.478;9.224;2023-05-07T03:28:35;2.72;;;1.35;;
50128;SDS011;36026;45.478;9.224;2023-05-07T03:31:37;1.48;;;1.20;;
50128;SDS011;36026;45.478;9.224;2023-05-07T03:34:41;1.75;;;1.20;;
50128;SDS011;36026;45.478;9.224;2023-05-07T03:37:43;1.67;;;1.20;;
50128;SDS011;36026;45.478;9.224;2023-05-07T03:40:55;2.78;;;1.13;;
50128;SDS011;36026;45.478;9.224;2023-05-07T03:43:59;4.60;;;1.27;;
50128;SDS011;36026;45.478;9.224;2023-05-07T03:47:07;2.50;;;1.20;;
50128;SDS011;36026;45.478;9.224;2023-05-07T03:50:14;2.38;;;1.23;;
50128;SDS011;36026;45.478;9.224;2023-05-07T03:53:22;2.90;;;1.25;;
50128;SDS011;36026;45.478;9.224;2023-05-07T03:56:24;2.10;;;1.08;;
50128;SDS011;36026;45.478;9.224;2023-05-07T03:59:28;1.40;;;1.15;;
50128;SDS011;36026;45.478;9.224;2023-05-07T04:02:30;1.75;;;1.15;;
50128;SDS011;36026;45.478;9.224;2023-05-07T04:05:33;2.42;;;1.50;;
50128;SDS011;36026;45.478;9.224;2023-05-07T04:08:38;2.97;;;1.40;;
50128;SDS011;36026;45.478;9.224;2023-05-07T04:14:57;3.55;;;1.30;;
50128;SDS011;36026;45.478;9.224;2023-05-07T04:18:05;1.60;;;1.00;;
50128;SDS011;36026;45.478;9.224;2023-05-07T04:21:15;2.15;;;1.30;;
50128;SDS011;36026;45.478;9.224;2023-05-07T04:24:18;2.78;;;1.30;;
50128;SDS011;36026;45.478;9.224;2023-05-07T04:27:32;1.75;;;1.13;;
50128;SDS011;36026;45.478;9.224;2023-05-07T04:33:54;2.65;;;1.00;;
50128;SDS011;36026;45.478;9.224;2023-05-07T04:36:59;3.30;;;1.20;;
50128;SDS011;36026;45.478;9.224;2023-05-07T04:40:01;1.48;;;1.00;;
50128;SDS011;36026;45.478;9.224;2023-05-07T04:43:03;1.35;;;1.00;;
50128;SDS011;36026;45.478;9.224;2023-05-07T04:46:04;1.50;;;1.00;;
50128;SDS011;36026;45.478;9.224;2023-05-07T04:49:06;6.55;;;1.10;;
50128;SDS011;36026;45.478;9.224;2023-05-07T04:52:09;3.38;;;1.17;;
50128;SDS011;36026;45.478;9.224;2023-05-07T04:55:25;1.88;;;0.90;;
50128;SDS011;36026;45.478;9.224;2023-05-07T04:58:27;4.32;;;1.25;;
50128;SDS011;36026;45.478;9.224;2023-05-07T05:01:44;1.95;;;0.98;;
50128;SDS011;36026;45.478;9.224;2023-05-07T05:04:46;1.40;;;0.98;;
50128;SDS011;36026;45.478;9.224;2023-05-07T05:07:49;1.52;;;1.00;;
50128;SDS011;36026;45.478;9.224;2023-05-07T05:10:51;3.00;;;0.90;;
50128;SDS011;36026;45.478;9.224;2023-05-07T05:13:53;1.65;;;0.90;;
50128;SDS011;36026;45.478;9.224;2023-05-07T05:16:55;1.60;;;1.10;;
50128;SDS011;36026;45.478;9.224;2023-05-07T05:19:57;4.82;;;1.30;;
50128;SDS011;36026;45.478;9.224;2023-05-07T05:23:00;4.10;;;1.10;;
50128;SDS011;36026;45.478;9.224;2023-05-07T05:26:02;10.70;;;1.40;;
50128;SDS011;36026;45.478;9.224;2023-05-07T05:29:04;2.20;;;1.17;;
50128;SDS011;36026;45.478;9.224;2023-05-07T05:32:09;2.92;;;1.00;;
50128;SDS011;36026;45.478;9.224;2023-05-07T05:35:11;4.72;;;1.35;;
50128;SDS011;36026;45.478;9.224;2023-05-07T05:41:39;1.75;;;1.20;;
50128;SDS011;36026;45.478;9.224;2023-05-07T05:44:43;9.57;;;1.40;;
50128;SDS011;36026;45.478;9.224;2023-05-07T05:47:45;4.20;;;1.23;;
50128;SDS011;36026;45.478;9.224;2023-05-07T05:50:46;1.73;;;0.93;;
50128;SDS011;36026;45.478;9.224;2023-05-07T05:53:59;1.70;;;1.10;;
50128;SDS011;36026;45.478;9.224;2023-05-07T05:57:00;1.70;;;1.20;;
50128;SDS011;36026;45.478;9.224;2023-05-07T06:00:04;1.63;;;1.10;;
50128;SDS011;36026;45.478;9.224;2023-05-07T06:03:15;2.05;;;1.30;;
50128;SDS011;36026;45.478;9.224;2023-05-07T06:06:16;1.75;;;1.27;;
50128;SDS011;36026;45.478;9.224;2023-05-07T06:09:20;1.90;;;1.40;;
50128;SDS011;36026;45.478;9.224;2023-05-07T06:12:23;2.50;;;1.00;;
50128;SDS011;36026;45.478;9.224;2023-05-07T06:15:25;2.95;;;0.93;;
50128;SDS011;36026;45.478;9.224;2023-05-07T06:18:27;3.15;;;1.35;;
50128;SDS011;36026;45.478;9.224;2023-05-07T06:21:31;2.28;;;1.52;;
50128;SDS011;36026;45.478;9.224;2023-05-07T06:27:36;2.77;;;1.43;;
50128;SDS011;36026;45.478;9.224;2023-05-07T06:30:39;2.50;;;1.40;;
50128;SDS011;36026;45.478;9.224;2023-05-07T06:33:42;2.40;;;1.27;;
50128;SDS011;36026;45.478;9.224;2023-05-07T06:36:50;1.40;;;1.20;;
50128;SDS011;36026;45.478;9.224;2023-05-07T06:40:06;1.83;;;1.38;;
50128;SDS011;36026;45.478;9.224;2023-05-07T06:43:09;2.45;;;1.40;;
50128;SDS011;36026;45.478;9.224;2023-05-07T06:46:11;2.47;;;1.08;;
50128;SDS011;36026;45.478;9.224;2023-05-07T06:49:14;3.47;;;1.52;;
50128;SDS011;36026;45.478;9.224;2023-05-07T06:52:16;1.50;;;1.05;;
50128;SDS011;36026;45.478;9.224;2023-05-07T06:55:20;1.45;;;1.10;;
50128;SDS011;36026;45.478;9.224;2023-05-07T06:58:21;1.90;;;1.00;;
50128;SDS011;36026;45.478;9.224;2023-05-07T07:01:34;2.03;;;1.00;;
50128;SDS011;36026;45.478;9.224;2023-05-07T07:04:36;3.38;;;1.08;;
50128;SDS011;36026;45.478;9.224;2023-05-07T07:08:00;3.95;;;1.15;;
50128;SDS011;36026;45.478;9.224;2023-05-07T07:11:09;3.53;;;1.10;;
50128;SDS011;36026;45.478;9.224;2023-05-07T07:17:13;2.05;;;1.00;;
50128;SDS011;36026;45.478;9.224;2023-05-07T07:20:38;2.17;;;1.02;;
50128;SDS011;36026;45.478;9.224;2023-05-07T07:23:40;1.65;;;1.10;;
50128;SDS011;36026;45.478;9.224;2023-05-07T07:26:43;3.17;;;0.90;;
50128;SDS011;36026;45.478;9.224;2023-05-07T07:29:45;1.50;;;0.88;;
50128;SDS011;36026;45.478;9.224;2023-05-07T07:32:47;1.52;;;1.10;;
50128;SDS011;36026;45.478;9.224;2023-05-07T07:35:49;1.45;;;1.05;;
50128;SDS011;36026;45.478;9.224;2023-05-07T07:38:51;1.63;;;1.15;;
50128;SDS011;36026;45.478;9.224;2023-05-07T07:41:55;1.50;;;1.10;;
50128;SDS011;36026;45.478;9.224;2023-05-07T07:44:57;2.67;;;1.08;;
50128;SDS011;36026;45.478;9.224;2023-05-07T07:47:59;2.58;;;1.10;;
50128;SDS011;36026;45.478;9.224;2023-05-07T07:51:01;1.48;;;0.90;;
50128;SDS011;36026;45.478;9.224;2023-05-07T07:54:03;1.75;;;1.10;;
50128;SDS011;36026;45.478;9.224;2023-05-07T07:57:06;2.28;;;1.08;;
50128;SDS011;36026;45.478;9.224;2023-05-07T08:00:20;2.20;;;0.80;;
50128;SDS011;36026;45.478;9.224;2023-05-07T08:06:23;1.90;;;0.82;;
50128;SDS011;36026;45.478;9.224;2023-05-07T08:09:25;4.60;;;1.35;;
50128;SDS011;36026;45.478;9.224;2023-05-07T08:12:29;2.58;;;1.30;;
50128;SDS011;36026;45.478;9.224;2023-05-07T08:15:31;2.20;;;1.40;;
50128;SDS011;36026;45.478;9.224;2023-05-07T08:18:33;2.33;;;1.35;;
50128;SDS011;36026;45.478;9.224;2023-05-07T08:21:34;2.25;;;1.30;;
50128;SDS011;36026;45.478;9.224;2023-05-07T08:24:39;3.20;;;1.10;;
50128;SDS011;36026;45.478;9.224;2023-05-07T08:27:43;3.80;;;1.50;;
50128;SDS011;36026;45.478;9.224;2023-05-07T08:30:45;3.42;;;1.20;;
50128;SDS011;36026;45.478;9.224;2023-05-07T08:33:50;1.88;;;1.00;;
50128;SDS011;36026;45.478;9.224;2023-05-07T08:36:52;2.20;;;1.08;;
50128;SDS011;36026;45.478;9.224;2023-05-07T08:40:38;1.10;;;0.90;;
50128;SDS011;36026;45.478;9.224;2023-05-07T08:43:42;1.98;;;1.27;;
50128;SDS011;36026;45.478;9.224;2023-05-07T08:46:52;4.10;;;1.40;;
50128;SDS011;36026;45.478;9.224;2023-05-07T08:49:57;2.80;;;1.35;;
50128;SDS011;36026;45.478;9.224;2023-05-07T08:53:03;2.10;;;1.50;;
50128;SDS011;36026;45.478;9.224;2023-05-07T08:56:08;1.98;;;1.20;;
50128;SDS011;36026;45.478;9.224;2023-05-07T08:59:12;2.08;;;1.58;;
50128;SDS011;36026;45.478;9.224;2023-05-07T09:02:14;5.03;;;1.30;;
50128;SDS011;36026;45.478;9.224;2023-05-07T09:05:16;2.42;;;1.33;;
50128;SDS011;36026;45.478;9.224;2023-05-07T09:11:40;4.72;;;1.90;;
50128;SDS011;36026;45.478;9.224;2023-05-07T09:14:45;2.75;;;1.70;;
50128;SDS011;36026;45.478;9.224;2023-05-07T09:17:48;2.55;;;1.58;;
50128;SDS011;36026;45.478;9.224;2023-05-07T09:24:26;3.67;;;1.90;;
50128;SDS011;36026;45.478;9.224;2023-05-07T09:27:33;3.42;;;2.00;;
50128;SDS011;36026;45.478;9.224;2023-05-07T09:30:37;3.90;;;2.08;;
50128;SDS011;36026;45.478;9.224;2023-05-07T09:38:05;3.72;;;1.83;;
50128;SDS011;36026;45.478;9.224;2023-05-07T09:41:22;2.53;;;1.75;;
50128;SDS011;36026;45.478;9.224;2023-05-07T09:44:24;3.83;;;1.67;;
50128;SDS011;36026;45.478;9.224;2023-05-07T09:47:48;2.10;;;1.67;;
50128;SDS011;36026;45.478;9.224;2023-05-07T09:54:48;5.85;;;2.10;;
50128;SDS011;36026;45.478;9.224;2023-05-07T09:58:08;4.00;;;2.38;;
50128;SDS011;36026;45.478;9.224;2023-05-07T10:01:39;2.47;;;2.03;;
50128;SDS011;36026;45.478;9.224;2023-05-07T10:13:27;4.63;;;2.63;;
50128;SDS011;36026;45.478;9.224;2023-05-07T10:17:20;3.10;;;2.40;;
50128;SDS011;36026;45.478;9.224;2023-05-07T10:37:00;2.25;;;1.75;;
50128;SDS011;36026;45.478;9.224;2023-05-07T10:40:27;3.88;;;1.90;;
50128;SDS011;36026;45.478;9.224;2023-05-07T10:43:37;2.28;;;1.92;;
50128;SDS011;36026;45.478;9.224;2023-05-07T10:46:57;6.43;;;2.40;;
50128;SDS011;36026;45.478;9.224;2023-05-07T10:50:20;2.20;;;2.00;;
50128;SDS011;36026;45.478;9.224;2023-05-07T10:53:36;4.65;;;1.70;;
50128;SDS011;36026;45.478;9.224;2023-05-07T10:56:38;2.10;;;1.90;;
50128;SDS011;36026;45.478;9.224;2023-05-07T10:59:42;2.97;;;1.80;;
50128;SDS011;36026;45.478;9.224;2023-05-07T11:06:09;3.00;;;1.90;;
50128;SDS011;36026;45.478;9.224;2023-05-07T11:09:12;3.65;;;2.00;;
50128;SDS011;36026;45.478;9.224;2023-05-07T11:12:14;3.38;;;2.33;;
50128;SDS011;36026;45.478;9.224;2023-05-07T11:15:32;3.03;;;1.60;;
50128;SDS011;36026;45.478;9.224;2023-05-07T11:18:47;3.28;;;2.05;;
50128;SDS011;36026;45.478;9.224;2023-05-07T11:21:49;3.10;;;2.13;;
50128;SDS011;36026;45.478;9.224;2023-05-07T11:24:54;4.10;;;2.20;;
50128;SDS011;36026;45.478;9.224;2023-05-07T11:27:56;5.70;;;2.20;;
50128;SDS011;36026;45.478;9.224;2023-05-07T11:31:06;3.13;;;2.33;;
50128;SDS011;36026;45.478;9.224;2023-05-07T11:34:29;3.72;;;2.97;;
50128;SDS011;36026;45.478;9.224;2023-05-07T11:37:31;3.88;;;2.50;;
50128;SDS011;36026;45.478;9.224;2023-05-07T11:40:33;10.43;;;3.88;;
50128;SDS011;36026;45.478;9.224;2023-05-07T11:43:35;3.33;;;2.92;;
50128;SDS011;36026;45.478;9.224;2023-05-07T11:46:37;3.30;;;2.57;;
50128;SDS011;36026;45.478;9.224;2023-05-07T11:49:56;9.30;;;3.45;;
50128;SDS011;36026;45.478;9.224;2023-05-07T11:52:58;5.65;;;2.60;;
50128;SDS011;36026;45.478;9.224;2023-05-07T11:56:00;2.80;;;2.03;;
50128;SDS011;36026;45.478;9.224;2023-05-07T11:59:07;2.58;;;2.38;;
50128;SDS011;36026;45.478;9.224;2023-05-07T12:02:09;4.15;;;2.25;;
50128;SDS011;36026;45.478;9.224;2023-05-07T12:05:13;4.35;;;2.85;;
50128;SDS011;36026;45.478;9.224;2023-05-07T12:08:15;2.95;;;2.33;;
50128;SDS011;36026;45.478;9.224;2023-05-07T12:11:29;2.35;;;2.15;;
50128;SDS011;36026;45.478;9.224;2023-05-07T12:14:31;4.55;;;2.28;;
50128;SDS011;36026;45.478;9.224;2023-05-07T12:17:33;2.30;;;2.10;;
50128;SDS011;36026;45.478;9.224;2023-05-07T12:20:37;3.38;;;1.90;;
50128;SDS011;36026;45.478;9.224;2023-05-07T12:23:39;5.82;;;2.20;;
50128;SDS011;36026;45.478;9.224;2023-05-07T12:26:41;3.55;;;2.28;;
50128;SDS011;36026;45.478;9.224;2023-05-07T12:29:45;3.50;;;2.33;;
50128;SDS011;36026;45.478;9.224;2023-05-07T12:32:55;4.18;;;2.25;;
50128;SDS011;36026;45.478;9.224;2023-05-07T12:36:02;2.22;;;1.55;;
50128;SDS011;36026;45.478;9.224;2023-05-07T12:39:05;2.10;;;1.77;;
50128;SDS011;36026;45.478;9.224;2023-05-07T12:42:07;2.10;;;1.90;;
50128;SDS011;36026;45.478;9.224;2023-05-07T12:45:09;3.15;;;2.05;;
50128;SDS011;36026;45.478;9.224;2023-05-07T12:48:11;5.05;;;2.42;;
50128;SDS011;36026;45.478;9.224;2023-05-07T12:51:27;2.35;;;1.80;;
50128;SDS011;36026;45.478;9.224;2023-05-07T12:54:30;3.17;;;2.28;;
50128;SDS011;36026;45.478;9.224;2023-05-07T12:57:38;3.10;;;2.38;;
50128;SDS011;36026;45.478;9.224;2023-05-07T13:00:50;1.95;;;1.75;;
50128;SDS011;36026;45.478;9.224;2023-05-07T13:04:06;2.65;;;2.00;;
50128;SDS011;36026;45.478;9.224;2023-05-07T13:07:09;2.65;;;1.95;;
50128;SDS011;36026;45.478;9.224;2023-05-07T13:10:11;7.35;;;1.98;;
50128;SDS011;36026;45.478;9.224;2023-05-07T13:13:13;2.00;;;1.83;;
50128;SDS011;36026;45.478;9.224;2023-05-07T13:16:16;1.70;;;1.60;;
50128;SDS011;36026;45.478;9.224;2023-05-07T13:19:21;2.28;;;1.70;;
50128;SDS011;36026;45.478;9.224;2023-05-07T13:25:40;2.10;;;1.80;;
50128;SDS011;36026;45.478;9.224;2023-05-07T13:28:55;2.50;;;1.85;;
50128;SDS011;36026;45.478;9.224;2023-05-07T13:31:57;5.40;;;1.58;;
50128;SDS011;36026;45.478;9.224;2023-05-07T13:35:03;4.18;;;2.00;;
50128;SDS011;36026;45.478;9.224;2023-05-07T13:38:19;2.45;;;1.90;;
50128;SDS011;36026;45.478;9.224;2023-05-07T13:41:24;3.42;;;1.90;;
50128;SDS011;36026;45.478;9.224;2023-05-07T13:44:26;1.90;;;1.70;;
50128;SDS011;36026;45.478;9.224;2023-05-07T13:47:36;2.10;;;1.67;;
50128;SDS011;36026;45.478;9.224;2023-05-07T13:51:06;2.38;;;1.48;;
50128;SDS011;36026;45.478;9.224;2023-05-07T13:54:09;1.83;;;1.55;;
50128;SDS011;36026;45.478;9.224;2023-05-07T13:57:20;1.80;;;1.67;;
50128;SDS011;36026;45.478;9.224;2023-05-07T14:00:43;2.78;;;1.70;;
50128;SDS011;36026;45.478;9.224;2023-05-07T14:03:45;2.45;;;1.40;;
50128;SDS011;36026;45.478;9.224;2023-05-07T14:10:15;2.00;;;1.80;;
50128;SDS011;36026;45.478;9.224;2023-05-07T14:13:34;2.30;;;1.63;;
50128;SDS011;36026;45.478;9.224;2023-05-07T14:16:38;2.10;;;1.90;;
50128;SDS011;36026;45.478;9.224;2023-05-07T14:19:40;2.33;;;1.73;;
50128;SDS011;36026;45.478;9.224;2023-05-07T14:22:42;3.10;;;1.90;;
50128;SDS011;36026;45.478;9.224;2023-05-07T14:29:14;2.58;;;1.70;;
50128;SDS011;36026;45.478;9.224;2023-05-07T14:32:36;1.85;;;1.48;;
50128;SDS011;36026;45.478;9.224;2023-05-07T14:35:38;2.30;;;1.83;;
50128;SDS011;36026;45.478;9.224;2023-05-07T14:38:40;2.17;;;1.63;;
50128;SDS011;36026;45.478;9.224;2023-05-07T14:52:47;1.67;;;1.40;;
50128;SDS011;36026;45.478;9.224;2023-05-07T14:55:50;2.58;;;1.55;;
50128;SDS011;36026;45.478;9.224;2023-05-07T14:58:52;2.25;;;1.83;;
50128;SDS011;36026;45.478;9.224;2023-05-07T15:08:54;2.40;;;1.58;;
50128;SDS011;36026;45.478;9.224;2023-05-07T15:11:59;4.47;;;1.75;;
50128;SDS011;36026;45.478;9.224;2023-05-07T15:18:37;2.90;;;1.58;;
50128;SDS011;36026;45.478;9.224;2023-05-07T15:21:41;6.07;;;1.50;;
50128;SDS011;36026;45.478;9.224;2023-05-07T15:24:43;2.55;;;1.50;;
50128;SDS011;36026;45.478;9.224;2023-05-07T15:27:45;3.10;;;1.63;;
50128;SDS011;36026;45.478;9.224;2023-05-07T15:30:47;1.58;;;1.42;;
50128;SDS011;36026;45.478;9.224;2023-05-07T15:37:41;3.92;;;1.63;;
50128;SDS011;36026;45.478;9.224;2023-05-07T15:40:43;2.22;;;1.70;;
50128;SDS011;36026;45.478;9.224;2023-05-07T15:43:46;2.55;;;1.42;;
50128;SDS011;36026;45.478;9.224;2023-05-07T15:46:54;1.80;;;1.45;;
50128;SDS011;36026;45.478;9.224;2023-05-07T15:49:58;1.42;;;1.33;;
50128;SDS011;36026;45.478;9.224;2023-05-07T15:53:00;2.75;;;1.50;;
50128;SDS011;36026;45.478;9.224;2023-05-07T15:56:01;1.88;;;1.30;;
50128;SDS011;36026;45.478;9.224;2023-05-07T15:59:05;1.30;;;1.20;;
50128;SDS011;36026;45.478;9.224;2023-05-07T16:02:17;2.42;;;1.40;;
50128;SDS011;36026;45.478;9.224;2023-05-07T16:05:28;3.97;;;2.15;;
50128;SDS011;36026;45.478;9.224;2023-05-07T16:08:30;3.15;;;1.65;;
50128;SDS011;36026;45.478;9.224;2023-05-07T16:11:33;1.67;;;1.52;;
50128;SDS011;36026;45.478;9.224;2023-05-07T16:14:35;3.78;;;2.10;;
50128;SDS011;36026;45.478;9.224;2023-05-07T16:17:37;5.38;;;1.92;;
50128;SDS011;36026;45.478;9.224;2023-05-07T16:20:41;13.57;;;2.40;;
50128;SDS011;36026;45.478;9.224;2023-05-07T16:23:46;5.35;;;1.92;;
50128;SDS011;36026;45.478;9.224;2023-05-07T16:26:49;7.93;;;1.92;;
50128;SDS011;36026;45.478;9.224;2023-05-07T16:30:00;3.45;;;1.75;;
50128;SDS011;36026;45.478;9.224;2023-05-07T16:33:02;3.35;;;1.80;;
50128;SDS011;36026;45.478;9.224;2023-05-07T16:36:06;4.22;;;1.70;;
50128;SDS011;36026;45.478;9.224;2023-05-07T16:39:08;8.18;;;2.50;;
50128;SDS011;36026;45.478;9.224;2023-05-07T16:42:12;3.42;;;1.70;;
50128;SDS011;36026;45.478;9.224;2023-05-07T16:45:14;1.83;;;1.63;;
50128;SDS011;36026;45.478;9.224;2023-05-07T16:48:17;2.45;;;1.67;;
50128;SDS011;36026;45.478;9.224;2023-05-07T16:51:54;5.28;;;2.20;;
50128;SDS011;36026;45.478;9.224;2023-05-07T16:55:04;2.17;;;1.98;;
50128;SDS011;36026;45.478;9.224;2023-05-07T17:02:32;2.95;;;2.22;;
50128;SDS011;36026;45.478;9.224;2023-05-07T17:05:37;7.38;;;2.60;;
50128;SDS011;36026;45.478;9.224;2023-05-07T17:09:23;6.05;;;2.20;;
50128;SDS011;36026;45.478;9.224;2023-05-07T17:23:54;2.72;;;2.30;;
50128;SDS011;36026;45.478;9.224;2023-05-07T17:26:57;5.95;;;2.45;;
50128;SDS011;36026;45.478;9.224;2023-05-07T17:30:02;3.17;;;2.08;;
50128;SDS011;36026;45.478;9.224;2023-05-07T17:33:05;3.92;;;2.40;;
50128;SDS011;36026;45.478;9.224;2023-05-07T17:36:07;3.42;;;2.70;;
50128;SDS011;36026;45.478;9.224;2023-05-07T17:39:09;7.43;;;2.45;;
50128;SDS011;36026;45.478;9.224;2023-05-07T17:42:12;4.72;;;2.60;;
50128;SDS011;36026;45.478;9.224;2023-05-07T17:45:14;4.45;;;2.70;;
50128;SDS011;36026;45.478;9.224;2023-05-07T17:48:20;3.60;;;2.50;;
50128;SDS011;36026;45.478;9.224;2023-05-07T17:52:03;5.25;;;2.42;;
50128;SDS011;36026;45.478;9.224;2023-05-07T17:54:53;5.38;;;2.40;;
50128;SDS011;36026;45.478;9.224;2023-05-07T17:58:00;6.20;;;2.78;;
50128;SDS011;36026;45.478;9.224;2023-05-07T18:01:46;6.45;;;2.58;;
50128;SDS011;36026;45.478;9.224;2023-05-07T18:08:35;3.92;;;2.70;;
50128;SDS011;36026;45.478;9.224;2023-05-07T18:12:28;4.40;;;2.40;;
50128;SDS011;36026;45.478;9.224;2023-05-07T18:23:40;4.53;;;2.75;;
50128;SDS011;36026;45.478;9.224;2023-05-07T18:39:16;7.40;;;2.90;;
50128;SDS011;36026;45.478;9.224;2023-05-07T18:42:21;3.10;;;2.00;;
50128;SDS011;36026;45.478;9.224;2023-05-07T18:45:27;2.00;;;1.65;;
50128;SDS011;36026;45.478;9.224;2023-05-07T18:48:29;3.17;;;1.83;;
50128;SDS011;36026;45.478;9.224;2023-05-07T18:51:31;1.63;;;1.38;;
50128;SDS011;36026;45.478;9.224;2023-05-07T18:54:34;4.15;;;1.52;;
50128;SDS011;36026;45.478;9.224;2023-05-07T18:57:42;3.63;;;1.45;;
50128;SDS011;36026;45.478;9.224;2023-05-07T19:00:45;4.05;;;1.23;;
50128;SDS011;36026;45.478;9.224;2023-05-07T19:03:47;3.05;;;1.33;;
50128;SDS011;36026;45.478;9.224;2023-05-07T19:06:49;3.35;;;1.60;;
50128;SDS011;36026;45.478;9.224;2023-05-07T19:10:07;3.25;;;1.52;;
50128;SDS011;36026;45.478;9.224;2023-05-07T19:13:28;2.95;;;1.60;;
50128;SDS011;36026;45.478;9.224;2023-05-07T19:16:43;3.42;;;1.15;;
50128;SDS011;36026;45.478;9.224;2023-05-07T19:20:18;2.85;;;1.40;;
50128;SDS011;36026;45.478;9.224;2023-05-07T19:23:25;2.35;;;1.67;;
50128;SDS011;36026;45.478;9.224;2023-05-07T19:26:28;3.65;;;1.30;;
50128;SDS011;36026;45.478;9.224;2023-05-07T19:29:30;2.78;;;1.63;;
50128;SDS011;36026;45.478;9.224;2023-05-07T19:32:44;3.22;;;1.50;;
50128;SDS011;36026;45.478;9.224;2023-05-07T19:35:45;2.40;;;1.35;;
50128;SDS011;36026;45.478;9.224;2023-05-07T19:38:47;2.15;;;1.52;;
50128;SDS011;36026;45.478;9.224;2023-05-07T19:41:58;2.67;;;1.60;;
50128;SDS011;36026;45.478;9.224;2023-05-07T19:45:00;6.07;;;1.70;;
50128;SDS011;36026;45.478;9.224;2023-05-07T19:48:03;4.03;;;1.83;;
50128;SDS011;36026;45.478;9.224;2023-05-07T19:51:13;4.28;;;1.33;;
50128;SDS011;36026;45.478;9.224;2023-05-07T19:54:25;1.83;;;1.35;;
50128;SDS011;36026;45.478;9.224;2023-05-07T19:57:28;5.05;;;1.20;;
50128;SDS011;36026;45.478;9.224;2023-05-07T20:00:30;3.38;;;1.40;;
50128;SDS011;36026;45.478;9.224;2023-05-07T20:03:33;4.07;;;1.30;;
50128;SDS011;36026;45.478;9.224;2023-05-07T20:14:14;4.00;;;1.42;;
50128;SDS011;36026;45.478;9.224;2023-05-07T20:17:30;4.97;;;1.30;;
50128;SDS011;36026;45.478;9.224;2023-05-07T20:24:45;3.22;;;1.20;;
50128;SDS011;36026;45.478;9.224;2023-05-07T20:27:48;3.67;;;1.40;;
50128;SDS011;36026;45.478;9.224;2023-05-07T20:42:56;4.55;;;1.75;;
50128;SDS011;36026;45.478;9.224;2023-05-07T20:45:58;2.35;;;1.50;;
50128;SDS011;36026;45.478;9.224;2023-05-07T20:49:00;4.93;;;1.83;;
50128;SDS011;36026;45.478;9.224;2023-05-07T20:52:18;4.30;;;1.92;;
50128;SDS011;36026;45.478;9.224;2023-05-07T20:55:20;3.20;;;2.00;;
50128;SDS011;36026;45.478;9.224;2023-05-07T20:58:23;10.80;;;5.20;;
50128;SDS011;36026;45.478;9.224;2023-05-07T21:01:40;4.00;;;1.88;;
50128;SDS011;36026;45.478;9.224;2023-05-07T21:04:43;2.00;;;1.70;;
50128;SDS011;36026;45.478;9.224;2023-05-07T21:07:45;3.55;;;1.65;;
50128;SDS011;36026;45.478;9.224;2023-05-07T21:10:47;4.60;;;2.00;;
50128;SDS011;36026;45.478;9.224;2023-05-07T21:13:50;3.53;;;1.60;;
50128;SDS011;36026;45.478;9.224;2023-05-07T21:16:55;4.10;;;1.70;;
50128;SDS011;36026;45.478;9.224;2023-05-07T21:19:59;6.20;;;1.80;;
50128;SDS011;36026;45.478;9.224;2023-05-07T21:23:01;2.90;;;1.75;;
50128;SDS011;36026;45.478;9.224;2023-05-07T21:26:03;4.68;;;1.90;;
50128;SDS011;36026;45.478;9.224;2023-05-07T21:29:06;4.97;;;2.40;;
50128;SDS011;36026;45.478;9.224;2023-05-07T21:32:09;7.18;;;2.50;;
50128;SDS011;36026;45.478;9.224;2023-05-07T21:35:10;2.90;;;2.08;;
50128;SDS011;36026;45.478;9.224;2023-05-07T21:38:12;5.75;;;3.08;;
50128;SDS011;36026;45.478;9.224;2023-05-07T21:41:14;5.65;;;2.88;;
50128;SDS011;36026;45.478;9.224;2023-05-07T21:44:17;3.38;;;2.55;;
50128;SDS011;36026;45.478;9.224;2023-05-07T21:47:19;3.60;;;2.60;;
50128;SDS011;36026;45.478;9.224;2023-05-07T21:51:00;3.65;;;2.47;;
50128;SDS011;36026;45.478;9.224;2023-05-07T21:54:20;4.35;;;2.55;;
50128;SDS011;36026;45.478;9.224;2023-05-07T21:57:28;3.95;;;2.65;;
50128;SDS011;36026;45.478;9.224;2023-05-07T22:03:53;5.25;;;2.90;;
50128;SDS011;36026;45.478;9.224;2023-05-07T22:07:22;4.20;;;3.30;;
50128;SDS011;36026;45.478;9.224;2023-05-07T22:10:32;6.95;;;3.15;;
50128;SDS011;36026;45.478;9.224;2023-05-07T22:13:34;5.07;;;3.05;;
50128;SDS011;36026;45.478;9.224;2023-05-07T22:16:40;4.20;;;2.58;;
50128;SDS011;36026;45.478;9.224;2023-05-07T22:19:44;5.20;;;3.10;;
50128;SDS011;36026;45.478;9.224;2023-05-07T22:22:46;6.32;;;2.60;;
50128;SDS011;36026;45.478;9.224;2023-05-07T22:25:48;3.95;;;2.50;;
50128;SDS011;36026;45.478;9.224;2023-05-07T22:28:52;3.92;;;2.50;;
50128;SDS011;36026;45.478;9.224;2023-05-07T22:36:02;4.10;;;1.90;;